sensor_id;sensor_type;location;lat;lon;timestamp;temperature;humidity
21092;DHT22;10704;42.678;23.288;2023-05-19T00:00:31;11.20;99.90
21092;DHT22;10704;42.678;23.288;2023-05-19T00:06:52;11.10;99.90
21092;DHT22;10704;42.678;23.288;2023-05-19T00:09:26;11.10;99.90
21092;DHT22;10704;42.678;23.288;2023-05-19T00:11:52;11.20;99.90
21092;DHT22;10704;42.678;23.288;2023-05-19T00:18:04;11.20;99.90
21092;DHT22;10704;42.678;23.288;2023-05-19T00:20:30;11.20;99.90
21092;DHT22;10704;42.678;23.288;2023-05-19T00:23:01;11.20;99.90
21092;DHT22;10704;42.678;23.288;2023-05-19T00:29:17;11.30;99.90
21092;DHT22;10704;42.678;23.288;2023-05-19T00:35:32;11.20;99.90
21092;DHT22;10704;42.678;23.288;2023-05-19T00:44:58;11.30;99.90
21092;DHT22;10704;42.678;23.288;2023-05-19T00:47:26;11.40;99.90
21092;DHT22;10704;42.678;23.288;2023-05-19T00:50:01;11.40;99.90
21092;DHT22;10704;42.678;23.288;2023-05-19T00:52:29;11.40;99.90
21092;DHT22;10704;42.678;23.288;2023-05-19T00:54:55;11.40;99.90
21092;DHT22;10704;42.678;23.288;2023-05-19T01:01:17;11.30;99.90
21092;DHT22;10704;42.678;23.288;2023-05-19T01:03:47;11.20;99.90
21092;DHT22;10704;42.678;23.288;2023-05-19T01:10:14;11.10;99.90
21092;DHT22;10704;42.678;23.288;2023-05-19T01:12:48;11.00;99.90
21092;DHT22;10704;42.678;23.288;2023-05-19T01:15:18;11.10;99.90
21092;DHT22;10704;42.678;23.288;2023-05-19T01:18:19;11.10;99.90
21092;DHT22;10704;42.678;23.288;2023-05-19T01:20:50;11.00;99.90
21092;DHT22;10704;42.678;23.288;2023-05-19T01:23:33;11.00;99.90
21092;DHT22;10704;42.678;23.288;2023-05-19T01:27:12;10.90;99.90
21092;DHT22;10704;42.678;23.288;2023-05-19T01:32:05;10.90;99.90
21092;DHT22;10704;42.678;23.288;2023-05-19T01:38:24;10.90;99.90
21092;DHT22;10704;42.678;23.288;2023-05-19T01:40:51;10.70;99.90
21092;DHT22;10704;42.678;23.288;2023-05-19T01:43:24;10.80;99.90
21092;DHT22;10704;42.678;23.288;2023-05-19T01:45:54;10.70;99.90
21092;DHT22;10704;42.678;23.288;2023-05-19T01:48:26;10.70;99.90
21092;DHT22;10704;42.678;23.288;2023-05-19T01:51:03;10.60;99.90
21092;DHT22;10704;42.678;23.288;2023-05-19T01:53:34;10.60;99.90
21092;DHT22;10704;42.678;23.288;2023-05-19T02:00:03;10.50;99.90
21092;DHT22;10704;42.678;23.288;2023-05-19T02:02:58;10.50;99.90
21092;DHT22;10704;42.678;23.288;2023-05-19T02:15:18;10.40;99.90
21092;DHT22;10704;42.678;23.288;2023-05-19T02:17:49;10.40;99.90
21092;DHT22;10704;42.678;23.288;2023-05-19T02:20:17;10.40;99.90
21092;DHT22;10704;42.678;23.288;2023-05-19T02:26:33;10.30;99.90
21092;DHT22;10704;42.678;23.288;2023-05-19T02:28:59;10.30;99.90
21092;DHT22;10704;42.678;23.288;2023-05-19T02:31:32;10.30;99.90
21092;DHT22;10704;42.678;23.288;2023-05-19T02:34:03;10.30;99.90
21092;DHT22;10704;42.678;23.288;2023-05-19T02:36:34;10.20;99.90
21092;DHT22;10704;42.678;23.288;2023-05-19T02:39:13;10.20;99.90
21092;DHT22;10704;42.678;23.288;2023-05-19T02:41:41;10.20;99.90
21092;DHT22;10704;42.678;23.288;2023-05-19T02:51:08;10.20;99.90
21092;DHT22;10704;42.678;23.288;2023-05-19T02:53:43;10.20;99.90
21092;DHT22;10704;42.678;23.288;2023-05-19T02:56:16;10.10;99.90
21092;DHT22;10704;42.678;23.288;2023-05-19T02:58:51;10.20;99.90
21092;DHT22;10704;42.678;23.288;2023-05-19T03:01:22;10.30;99.90
21092;DHT22;10704;42.678;23.288;2023-05-19T03:03:51;10.30;99.90
21092;DHT22;10704;42.678;23.288;2023-05-19T03:06:19;10.30;99.90
21092;DHT22;10704;42.678;23.288;2023-05-19T03:08:48;10.20;99.90
21092;DHT22;10704;42.678;23.288;2023-05-19T03:11:23;10.20;99.90
21092;DHT22;10704;42.678;23.288;2023-05-19T03:14:13;10.20;99.90
21092;DHT22;10704;42.678;23.288;2023-05-19T03:17:04;10.40;99.90
21092;DHT22;10704;42.678;23.288;2023-05-19T03:19:41;10.40;99.90
21092;DHT22;10704;42.678;23.288;2023-05-19T03:22:10;10.40;99.90
21092;DHT22;10704;42.678;23.288;2023-05-19T03:24:44;10.40;99.90
21092;DHT22;10704;42.678;23.288;2023-05-19T03:27:18;10.30;99.90
21092;DHT22;10704;42.678;23.288;2023-05-19T03:29:53;10.30;99.90
21092;DHT22;10704;42.678;23.288;2023-05-19T03:32:23;10.30;99.90
21092;DHT22;10704;42.678;23.288;2023-05-19T03:34:51;10.40;99.90
21092;DHT22;10704;42.678;23.288;2023-05-19T03:37:55;10.30;99.90
21092;DHT22;10704;42.678;23.288;2023-05-19T03:44:08;10.40;99.90
21092;DHT22;10704;42.678;23.288;2023-05-19T03:46:34;10.50;99.90
21092;DHT22;10704;42.678;23.288;2023-05-19T03:56:53;10.50;99.90
21092;DHT22;10704;42.678;23.288;2023-05-19T03:59:19;10.60;99.90
21092;DHT22;10704;42.678;23.288;2023-05-19T04:01:45;10.60;99.90
21092;DHT22;10704;42.678;23.288;2023-05-19T04:04:12;10.80;99.90
21092;DHT22;10704;42.678;23.288;2023-05-19T04:06:38;10.90;99.90
21092;DHT22;10704;42.678;23.288;2023-05-19T04:09:10;10.90;99.90
21092;DHT22;10704;42.678;23.288;2023-05-19T04:11:38;11.00;99.90
21092;DHT22;10704;42.678;23.288;2023-05-19T04:14:05;11.10;99.90
21092;DHT22;10704;42.678;23.288;2023-05-19T04:16:31;11.30;99.90
21092;DHT22;10704;42.678;23.288;2023-05-19T04:18:57;11.40;99.90
21092;DHT22;10704;42.678;23.288;2023-05-19T04:21:23;11.50;99.90
21092;DHT22;10704;42.678;23.288;2023-05-19T04:23:49;11.60;99.90
21092;DHT22;10704;42.678;23.288;2023-05-19T04:30:13;12.00;99.90
21092;DHT22;10704;42.678;23.288;2023-05-19T04:32:47;12.10;99.90
21092;DHT22;10704;42.678;23.288;2023-05-19T04:35:16;12.00;99.90
21092;DHT22;10704;42.678;23.288;2023-05-19T04:37:43;12.00;99.90
21092;DHT22;10704;42.678;23.288;2023-05-19T04:44:03;12.60;99.90
21092;DHT22;10704;42.678;23.288;2023-05-19T04:46:29;12.60;99.90
21092;DHT22;10704;42.678;23.288;2023-05-19T04:48:55;12.50;99.90
21092;DHT22;10704;42.678;23.288;2023-05-19T04:51:22;13.00;99.90
21092;DHT22;10704;42.678;23.288;2023-05-19T04:53:56;13.30;99.90
21092;DHT22;10704;42.678;23.288;2023-05-19T04:56:22;12.60;99.90
21092;DHT22;10704;42.678;23.288;2023-05-19T04:58:49;12.40;99.90
21092;DHT22;10704;42.678;23.288;2023-05-19T05:01:15;12.40;99.90
21092;DHT22;10704;42.678;23.288;2023-05-19T05:03:42;12.50;99.90
21092;DHT22;10704;42.678;23.288;2023-05-19T05:06:09;12.40;99.90
21092;DHT22;10704;42.678;23.288;2023-05-19T05:08:36;12.40;99.90
21092;DHT22;10704;42.678;23.288;2023-05-19T05:11:06;13.10;99.90
21092;DHT22;10704;42.678;23.288;2023-05-19T05:13:32;13.10;99.90
21092;DHT22;10704;42.678;23.288;2023-05-19T05:15:59;13.20;99.90
21092;DHT22;10704;42.678;23.288;2023-05-19T05:18:26;13.10;99.90
21092;DHT22;10704;42.678;23.288;2023-05-19T05:20:52;13.00;99.90
21092;DHT22;10704;42.678;23.288;2023-05-19T05:27:24;13.10;99.90
21092;DHT22;10704;42.678;23.288;2023-05-19T05:29:52;13.30;99.90
21092;DHT22;10704;42.678;23.288;2023-05-19T05:32:19;13.40;99.90
21092;DHT22;10704;42.678;23.288;2023-05-19T05:34:45;13.40;99.90
21092;DHT22;10704;42.678;23.288;2023-05-19T05:37:11;13.40;99.90
21092;DHT22;10704;42.678;23.288;2023-05-19T05:39:37;13.60;99.90
21092;DHT22;10704;42.678;23.288;2023-05-19T05:42:04;13.70;99.90
21092;DHT22;10704;42.678;23.288;2023-05-19T05:48:18;14.40;99.90
21092;DHT22;10704;42.678;23.288;2023-05-19T05:50:44;14.50;99.90
21092;DHT22;10704;42.678;23.288;2023-05-19T05:57:00;14.10;99.90
21092;DHT22;10704;42.678;23.288;2023-05-19T05:59:27;14.30;99.90
21092;DHT22;10704;42.678;23.288;2023-05-19T06:01:52;14.20;99.90
21092;DHT22;10704;42.678;23.288;2023-05-19T06:04:19;14.20;99.90
21092;DHT22;10704;42.678;23.288;2023-05-19T06:06:53;14.40;99.90
21092;DHT22;10704;42.678;23.288;2023-05-19T06:09:24;14.60;99.90
21092;DHT22;10704;42.678;23.288;2023-05-19T06:11:50;14.70;99.90
21092;DHT22;10704;42.678;23.288;2023-05-19T06:14:17;15.00;99.90
21092;DHT22;10704;42.678;23.288;2023-05-19T06:24:10;15.40;99.90
21092;DHT22;10704;42.678;23.288;2023-05-19T06:26:36;15.80;99.90
21092;DHT22;10704;42.678;23.288;2023-05-19T06:29:02;16.00;99.90
21092;DHT22;10704;42.678;23.288;2023-05-19T06:31:28;16.10;99.90
21092;DHT22;10704;42.678;23.288;2023-05-19T06:34:00;16.20;99.90
21092;DHT22;10704;42.678;23.288;2023-05-19T06:36:27;16.00;99.90
21092;DHT22;10704;42.678;23.288;2023-05-19T06:38:55;16.10;99.90
21092;DHT22;10704;42.678;23.288;2023-05-19T06:45:09;16.30;99.90
21092;DHT22;10704;42.678;23.288;2023-05-19T06:47:37;16.10;99.90
21092;DHT22;10704;42.678;23.288;2023-05-19T06:57:40;16.70;99.90
21092;DHT22;10704;42.678;23.288;2023-05-19T07:00:07;16.90;99.90
21092;DHT22;10704;42.678;23.288;2023-05-19T07:02:38;16.80;99.90
21092;DHT22;10704;42.678;23.288;2023-05-19T07:05:04;16.50;99.90
21092;DHT22;10704;42.678;23.288;2023-05-19T07:07:30;16.90;99.90
21092;DHT22;10704;42.678;23.288;2023-05-19T07:09:57;17.30;99.90
21092;DHT22;10704;42.678;23.288;2023-05-19T07:16:12;17.90;99.90
21092;DHT22;10704;42.678;23.288;2023-05-19T07:25:55;18.10;99.90
21092;DHT22;10704;42.678;23.288;2023-05-19T07:28:21;18.00;99.90
21092;DHT22;10704;42.678;23.288;2023-05-19T07:30:47;18.30;99.90
21092;DHT22;10704;42.678;23.288;2023-05-19T07:48:24;18.80;99.90
21092;DHT22;10704;42.678;23.288;2023-05-19T07:51:17;19.10;99.90
21092;DHT22;10704;42.678;23.288;2023-05-19T07:53:43;19.50;99.90
21092;DHT22;10704;42.678;23.288;2023-05-19T07:56:11;20.20;99.90
21092;DHT22;10704;42.678;23.288;2023-05-19T07:58:37;20.40;99.90
21092;DHT22;10704;42.678;23.288;2023-05-19T08:01:03;20.70;99.90
21092;DHT22;10704;42.678;23.288;2023-05-19T08:03:29;20.90;99.90
21092;DHT22;10704;42.678;23.288;2023-05-19T08:09:42;20.90;99.90
21092;DHT22;10704;42.678;23.288;2023-05-19T08:12:09;20.90;99.90
21092;DHT22;10704;42.678;23.288;2023-05-19T08:14:35;21.20;99.90
21092;DHT22;10704;42.678;23.288;2023-05-19T08:17:02;21.60;99.90
21092;DHT22;10704;42.678;23.288;2023-05-19T08:19:28;21.80;98.40
21092;DHT22;10704;42.678;23.288;2023-05-19T08:21:54;21.60;99.20
21092;DHT22;10704;42.678;23.288;2023-05-19T08:24:20;21.90;98.30
21092;DHT22;10704;42.678;23.288;2023-05-19T08:30:33;21.20;98.10
21092;DHT22;10704;42.678;23.288;2023-05-19T08:36:46;21.30;99.10
21092;DHT22;10704;42.678;23.288;2023-05-19T08:39:12;22.10;97.30
21092;DHT22;10704;42.678;23.288;2023-05-19T08:41:40;22.60;98.20
21092;DHT22;10704;42.678;23.288;2023-05-19T08:44:06;22.80;96.10
21092;DHT22;10704;42.678;23.288;2023-05-19T08:46:32;23.10;95.00
21092;DHT22;10704;42.678;23.288;2023-05-19T08:49:09;23.10;94.20
21092;DHT22;10704;42.678;23.288;2023-05-19T08:52:02;22.60;94.40
21092;DHT22;10704;42.678;23.288;2023-05-19T08:54:44;22.20;95.00
21092;DHT22;10704;42.678;23.288;2023-05-19T09:04:14;23.80;92.40
21092;DHT22;10704;42.678;23.288;2023-05-19T09:06:41;24.70;91.30
21092;DHT22;10704;42.678;23.288;2023-05-19T09:09:09;24.60;90.00
21092;DHT22;10704;42.678;23.288;2023-05-19T09:11:36;24.50;90.30
21092;DHT22;10704;42.678;23.288;2023-05-19T09:14:03;24.80;88.90
21092;DHT22;10704;42.678;23.288;2023-05-19T09:24:04;26.40;84.00
21092;DHT22;10704;42.678;23.288;2023-05-19T09:26:38;26.50;83.50
21092;DHT22;10704;42.678;23.288;2023-05-19T09:29:15;25.90;81.00
21092;DHT22;10704;42.678;23.288;2023-05-19T09:31:48;24.40;84.30
21092;DHT22;10704;42.678;23.288;2023-05-19T09:34:17;24.90;85.80
21092;DHT22;10704;42.678;23.288;2023-05-19T09:36:45;26.00;85.80
21092;DHT22;10704;42.678;23.288;2023-05-19T09:39:15;26.60;81.90
21092;DHT22;10704;42.678;23.288;2023-05-19T09:41:41;27.20;79.90
21092;DHT22;10704;42.678;23.288;2023-05-19T09:47:55;27.40;75.40
21092;DHT22;10704;42.678;23.288;2023-05-19T09:50:21;27.60;76.00
21092;DHT22;10704;42.678;23.288;2023-05-19T09:52:47;28.20;74.80
21092;DHT22;10704;42.678;23.288;2023-05-19T09:55:13;28.50;73.60
21092;DHT22;10704;42.678;23.288;2023-05-19T09:57:40;28.30;72.20
21092;DHT22;10704;42.678;23.288;2023-05-19T10:00:07;27.70;72.50
21092;DHT22;10704;42.678;23.288;2023-05-19T10:02:40;26.60;73.90
21092;DHT22;10704;42.678;23.288;2023-05-19T10:05:13;27.00;75.50
21092;DHT22;10704;42.678;23.288;2023-05-19T10:15:01;28.80;69.00
21092;DHT22;10704;42.678;23.288;2023-05-19T10:17:27;27.60;69.20
21092;DHT22;10704;42.678;23.288;2023-05-19T10:19:54;28.20;70.80
21092;DHT22;10704;42.678;23.288;2023-05-19T10:22:20;28.50;69.50
21092;DHT22;10704;42.678;23.288;2023-05-19T10:24:46;28.20;69.00
21092;DHT22;10704;42.678;23.288;2023-05-19T10:34:22;26.50;72.20
21092;DHT22;10704;42.678;23.288;2023-05-19T10:37:24;26.90;71.30
21092;DHT22;10704;42.678;23.288;2023-05-19T10:50:48;26.20;71.60
21092;DHT22;10704;42.678;23.288;2023-05-19T10:53:17;28.10;67.30
21092;DHT22;10704;42.678;23.288;2023-05-19T10:59:35;29.20;63.70
21092;DHT22;10704;42.678;23.288;2023-05-19T11:02:03;28.90;61.70
21092;DHT22;10704;42.678;23.288;2023-05-19T11:08:31;29.50;61.90
21092;DHT22;10704;42.678;23.288;2023-05-19T11:14:46;28.70;63.80
21092;DHT22;10704;42.678;23.288;2023-05-19T11:21:00;28.00;64.60
21092;DHT22;10704;42.678;23.288;2023-05-19T11:27:31;27.00;63.70
21092;DHT22;10704;42.678;23.288;2023-05-19T11:32:35;26.80;65.30
21092;DHT22;10704;42.678;23.288;2023-05-19T11:35:04;26.40;65.80
21092;DHT22;10704;42.678;23.288;2023-05-19T11:37:33;26.00;64.80
21092;DHT22;10704;42.678;23.288;2023-05-19T11:40:08;25.40;65.80
21092;DHT22;10704;42.678;23.288;2023-05-19T11:42:35;24.80;67.00
21092;DHT22;10704;42.678;23.288;2023-05-19T11:45:02;24.50;67.20
21092;DHT22;10704;42.678;23.288;2023-05-19T11:47:30;23.90;70.00
21092;DHT22;10704;42.678;23.288;2023-05-19T11:54:01;23.80;72.30
21092;DHT22;10704;42.678;23.288;2023-05-19T11:56:33;23.40;73.30
21092;DHT22;10704;42.678;23.288;2023-05-19T11:58:59;22.70;75.80
21092;DHT22;10704;42.678;23.288;2023-05-19T12:01:25;21.80;85.90
21092;DHT22;10704;42.678;23.288;2023-05-19T12:03:51;20.80;93.30
21092;DHT22;10704;42.678;23.288;2023-05-19T12:06:18;19.70;99.90
21092;DHT22;10704;42.678;23.288;2023-05-19T12:08:44;19.10;99.90
21092;DHT22;10704;42.678;23.288;2023-05-19T12:11:10;18.80;99.90
21092;DHT22;10704;42.678;23.288;2023-05-19T12:13:36;18.50;99.90
21092;DHT22;10704;42.678;23.288;2023-05-19T12:16:03;18.30;99.90
21092;DHT22;10704;42.678;23.288;2023-05-19T12:18:29;18.00;99.90
21092;DHT22;10704;42.678;23.288;2023-05-19T12:20:56;17.80;99.90
21092;DHT22;10704;42.678;23.288;2023-05-19T12:23:22;17.50;99.90
21092;DHT22;10704;42.678;23.288;2023-05-19T12:25:49;17.20;99.90
21092;DHT22;10704;42.678;23.288;2023-05-19T12:28:15;17.00;99.90
21092;DHT22;10704;42.678;23.288;2023-05-19T12:30:47;16.80;99.90
21092;DHT22;10704;42.678;23.288;2023-05-19T12:33:14;16.30;99.90
21092;DHT22;10704;42.678;23.288;2023-05-19T12:35:41;15.70;99.90
21092;DHT22;10704;42.678;23.288;2023-05-19T12:38:07;15.40;99.90
21092;DHT22;10704;42.678;23.288;2023-05-19T12:40:34;15.30;99.90
21092;DHT22;10704;42.678;23.288;2023-05-19T12:43:00;15.50;99.90
21092;DHT22;10704;42.678;23.288;2023-05-19T12:45:26;15.80;99.90
21092;DHT22;10704;42.678;23.288;2023-05-19T12:47:53;16.20;99.90
21092;DHT22;10704;42.678;23.288;2023-05-19T12:50:19;16.50;99.90
21092;DHT22;10704;42.678;23.288;2023-05-19T12:52:49;16.70;99.90
21092;DHT22;10704;42.678;23.288;2023-05-19T12:59:05;17.40;99.90
21092;DHT22;10704;42.678;23.288;2023-05-19T13:01:31;17.70;99.90
21092;DHT22;10704;42.678;23.288;2023-05-19T13:04:00;17.90;99.90
21092;DHT22;10704;42.678;23.288;2023-05-19T13:06:26;18.20;99.90
21092;DHT22;10704;42.678;23.288;2023-05-19T13:08:52;18.30;99.90
21092;DHT22;10704;42.678;23.288;2023-05-19T13:11:22;18.40;99.90
21092;DHT22;10704;42.678;23.288;2023-05-19T13:13:48;18.40;99.90
21092;DHT22;10704;42.678;23.288;2023-05-19T13:16:14;18.60;99.90
21092;DHT22;10704;42.678;23.288;2023-05-19T13:18:40;18.80;99.90
21092;DHT22;10704;42.678;23.288;2023-05-19T13:21:06;18.90;99.90
21092;DHT22;10704;42.678;23.288;2023-05-19T13:23:32;19.10;99.90
21092;DHT22;10704;42.678;23.288;2023-05-19T13:25:59;19.20;99.90
21092;DHT22;10704;42.678;23.288;2023-05-19T13:28:25;19.30;99.90
21092;DHT22;10704;42.678;23.288;2023-05-19T13:46:00;19.60;99.90
21092;DHT22;10704;42.678;23.288;2023-05-19T13:48:26;19.70;99.80
21092;DHT22;10704;42.678;23.288;2023-05-19T13:54:40;19.80;99.10
21092;DHT22;10704;42.678;23.288;2023-05-19T13:57:06;19.90;98.50
21092;DHT22;10704;42.678;23.288;2023-05-19T14:03:20;19.70;98.10
21092;DHT22;10704;42.678;23.288;2023-05-19T14:05:47;19.80;99.50
21092;DHT22;10704;42.678;23.288;2023-05-19T14:08:14;19.60;99.00
21092;DHT22;10704;42.678;23.288;2023-05-19T14:10:40;19.40;99.70
21092;DHT22;10704;42.678;23.288;2023-05-19T14:13:08;19.40;99.40
21092;DHT22;10704;42.678;23.288;2023-05-19T14:15:35;19.60;99.50
21092;DHT22;10704;42.678;23.288;2023-05-19T14:18:02;19.80;99.10
21092;DHT22;10704;42.678;23.288;2023-05-19T14:20:28;19.70;96.60
21092;DHT22;10704;42.678;23.288;2023-05-19T14:22:54;19.70;97.20
21092;DHT22;10704;42.678;23.288;2023-05-19T14:25:20;20.00;96.90
21092;DHT22;10704;42.678;23.288;2023-05-19T14:27:46;20.70;96.20
21092;DHT22;10704;42.678;23.288;2023-05-19T14:30:12;21.10;94.60
21092;DHT22;10704;42.678;23.288;2023-05-19T14:39:51;21.70;91.40
21092;DHT22;10704;42.678;23.288;2023-05-19T14:42:17;21.50;90.80
21092;DHT22;10704;42.678;23.288;2023-05-19T14:44:43;21.40;90.50
21092;DHT22;10704;42.678;23.288;2023-05-19T14:47:09;21.30;90.50
21092;DHT22;10704;42.678;23.288;2023-05-19T14:49:36;21.30;90.90
21092;DHT22;10704;42.678;23.288;2023-05-19T14:52:02;21.30;90.90
21092;DHT22;10704;42.678;23.288;2023-05-19T14:54:28;21.50;91.20
21092;DHT22;10704;42.678;23.288;2023-05-19T14:56:54;21.60;91.20
21092;DHT22;10704;42.678;23.288;2023-05-19T14:59:20;21.70;90.80
21092;DHT22;10704;42.678;23.288;2023-05-19T15:01:46;21.40;91.50
21092;DHT22;10704;42.678;23.288;2023-05-19T15:04:12;21.50;92.10
21092;DHT22;10704;42.678;23.288;2023-05-19T15:06:37;21.60;91.60
21092;DHT22;10704;42.678;23.288;2023-05-19T15:09:03;21.60;91.10
21092;DHT22;10704;42.678;23.288;2023-05-19T15:11:29;21.50;90.70
21092;DHT22;10704;42.678;23.288;2023-05-19T15:13:56;22.00;90.20
21092;DHT22;10704;42.678;23.288;2023-05-19T15:20:10;23.60;84.70
21092;DHT22;10704;42.678;23.288;2023-05-19T15:22:36;23.80;82.50
21092;DHT22;10704;42.678;23.288;2023-05-19T15:25:02;24.30;80.10
21092;DHT22;10704;42.678;23.288;2023-05-19T15:27:28;24.90;79.20
21092;DHT22;10704;42.678;23.288;2023-05-19T15:29:54;25.20;77.40
21092;DHT22;10704;42.678;23.288;2023-05-19T15:32:19;25.60;76.20
21092;DHT22;10704;42.678;23.288;2023-05-19T15:34:45;25.90;73.60
21092;DHT22;10704;42.678;23.288;2023-05-19T15:37:11;25.80;72.90
21092;DHT22;10704;42.678;23.288;2023-05-19T15:39:37;26.20;72.60
21092;DHT22;10704;42.678;23.288;2023-05-19T15:42:03;26.90;70.90
21092;DHT22;10704;42.678;23.288;2023-05-19T15:44:29;26.50;71.00
21092;DHT22;10704;42.678;23.288;2023-05-19T15:46:55;26.00;71.00
21092;DHT22;10704;42.678;23.288;2023-05-19T15:49:20;25.80;72.60
21092;DHT22;10704;42.678;23.288;2023-05-19T15:51:47;25.20;73.10
21092;DHT22;10704;42.678;23.288;2023-05-19T15:54:12;24.60;74.00
21092;DHT22;10704;42.678;23.288;2023-05-19T15:56:38;24.20;74.30
21092;DHT22;10704;42.678;23.288;2023-05-19T15:59:04;23.70;75.50
21092;DHT22;10704;42.678;23.288;2023-05-19T16:01:30;23.50;76.60
21092;DHT22;10704;42.678;23.288;2023-05-19T16:11:36;22.50;81.90
21092;DHT22;10704;42.678;23.288;2023-05-19T16:14:03;22.00;84.10
21092;DHT22;10704;42.678;23.288;2023-05-19T16:20:15;21.60;86.70
21092;DHT22;10704;42.678;23.288;2023-05-19T16:22:41;21.40;87.30
21092;DHT22;10704;42.678;23.288;2023-05-19T16:25:09;21.00;88.20
21092;DHT22;10704;42.678;23.288;2023-05-19T16:27:36;20.80;89.30
21092;DHT22;10704;42.678;23.288;2023-05-19T16:30:32;20.60;90.20
21092;DHT22;10704;42.678;23.288;2023-05-19T16:40:33;20.80;91.30
21092;DHT22;10704;42.678;23.288;2023-05-19T16:42:59;20.80;91.00
21092;DHT22;10704;42.678;23.288;2023-05-19T16:45:25;21.00;91.20
21092;DHT22;10704;42.678;23.288;2023-05-19T16:47:51;21.00;91.20
21092;DHT22;10704;42.678;23.288;2023-05-19T16:50:17;21.00;91.00
21092;DHT22;10704;42.678;23.288;2023-05-19T16:52:43;20.80;91.60
21092;DHT22;10704;42.678;23.288;2023-05-19T16:55:09;20.80;92.00
21092;DHT22;10704;42.678;23.288;2023-05-19T16:57:35;20.70;92.30
21092;DHT22;10704;42.678;23.288;2023-05-19T17:00:01;20.50;92.60
21092;DHT22;10704;42.678;23.288;2023-05-19T17:02:48;20.10;93.40
21092;DHT22;10704;42.678;23.288;2023-05-19T17:05:14;20.00;94.70
21092;DHT22;10704;42.678;23.288;2023-05-19T17:07:40;19.90;95.10
21092;DHT22;10704;42.678;23.288;2023-05-19T17:10:06;19.80;96.10
21092;DHT22;10704;42.678;23.288;2023-05-19T17:15:44;19.60;97.60
21092;DHT22;10704;42.678;23.288;2023-05-19T17:18:34;19.40;99.00
21092;DHT22;10704;42.678;23.288;2023-05-19T17:21:37;19.30;99.90
21092;DHT22;10704;42.678;23.288;2023-05-19T17:53:56;18.50;99.90
21092;DHT22;10704;42.678;23.288;2023-05-19T17:56:23;18.50;99.90
21092;DHT22;10704;42.678;23.288;2023-05-19T17:58:52;18.50;99.90
21092;DHT22;10704;42.678;23.288;2023-05-19T18:01:19;18.50;99.90
21092;DHT22;10704;42.678;23.288;2023-05-19T18:03:53;18.50;99.90
21092;DHT22;10704;42.678;23.288;2023-05-19T18:10:07;18.40;99.90
21092;DHT22;10704;42.678;23.288;2023-05-19T18:12:40;18.30;99.90
21092;DHT22;10704;42.678;23.288;2023-05-19T18:15:06;18.30;99.90
21092;DHT22;10704;42.678;23.288;2023-05-19T18:17:33;18.30;99.90
21092;DHT22;10704;42.678;23.288;2023-05-19T18:19:59;18.30;99.90
21092;DHT22;10704;42.678;23.288;2023-05-19T18:22:27;18.10;99.90
21092;DHT22;10704;42.678;23.288;2023-05-19T18:24:57;18.00;99.90
21092;DHT22;10704;42.678;23.288;2023-05-19T18:27:23;18.00;99.90
21092;DHT22;10704;42.678;23.288;2023-05-19T18:33:37;17.70;99.90
21092;DHT22;10704;42.678;23.288;2023-05-19T18:36:11;17.60;99.90
21092;DHT22;10704;42.678;23.288;2023-05-19T18:38:41;17.50;99.90
21092;DHT22;10704;42.678;23.288;2023-05-19T18:41:07;17.40;99.90
21092;DHT22;10704;42.678;23.288;2023-05-19T18:43:39;17.40;99.90
21092;DHT22;10704;42.678;23.288;2023-05-19T18:46:05;17.30;99.90
21092;DHT22;10704;42.678;23.288;2023-05-19T18:48:31;17.20;99.90
21092;DHT22;10704;42.678;23.288;2023-05-19T18:50:58;17.10;99.90
21092;DHT22;10704;42.678;23.288;2023-05-19T18:53:29;17.10;99.90
21092;DHT22;10704;42.678;23.288;2023-05-19T19:03:32;16.70;99.90
21092;DHT22;10704;42.678;23.288;2023-05-19T19:06:07;16.60;99.90
21092;DHT22;10704;42.678;23.288;2023-05-19T19:12:21;16.40;99.90
21092;DHT22;10704;42.678;23.288;2023-05-19T19:14:48;16.20;99.90
21092;DHT22;10704;42.678;23.288;2023-05-19T19:21:03;16.00;99.90
21092;DHT22;10704;42.678;23.288;2023-05-19T19:31:08;15.70;99.90
21092;DHT22;10704;42.678;23.288;2023-05-19T19:33:37;15.60;99.90
21092;DHT22;10704;42.678;23.288;2023-05-19T19:39:22;15.50;99.90
21092;DHT22;10704;42.678;23.288;2023-05-19T19:49:24;15.40;99.90
21092;DHT22;10704;42.678;23.288;2023-05-19T19:51:58;15.40;99.90
21092;DHT22;10704;42.678;23.288;2023-05-19T19:54:24;15.40;99.90
21092;DHT22;10704;42.678;23.288;2023-05-19T19:56:50;15.40;99.90
21092;DHT22;10704;42.678;23.288;2023-05-19T19:59:19;15.30;99.90
21092;DHT22;10704;42.678;23.288;2023-05-19T20:01:49;15.20;99.90
21092;DHT22;10704;42.678;23.288;2023-05-19T20:04:16;15.20;99.90
21092;DHT22;10704;42.678;23.288;2023-05-19T20:07:05;15.20;99.90
21092;DHT22;10704;42.678;23.288;2023-05-19T20:09:31;15.10;99.90
21092;DHT22;10704;42.678;23.288;2023-05-19T20:12:08;15.10;99.90
21092;DHT22;10704;42.678;23.288;2023-05-19T20:14:35;15.00;99.90
21092;DHT22;10704;42.678;23.288;2023-05-19T20:17:01;15.00;99.90
21092;DHT22;10704;42.678;23.288;2023-05-19T20:19:28;15.00;99.90
21092;DHT22;10704;42.678;23.288;2023-05-19T20:21:54;14.90;99.90
21092;DHT22;10704;42.678;23.288;2023-05-19T20:24:19;14.90;99.90
21092;DHT22;10704;42.678;23.288;2023-05-19T20:26:45;14.90;99.90
21092;DHT22;10704;42.678;23.288;2023-05-19T20:40:44;14.40;99.90
21092;DHT22;10704;42.678;23.288;2023-05-19T20:43:13;14.30;99.90
21092;DHT22;10704;42.678;23.288;2023-05-19T20:45:42;14.30;99.90
21092;DHT22;10704;42.678;23.288;2023-05-19T20:48:08;14.30;99.90
21092;DHT22;10704;42.678;23.288;2023-05-19T20:50:37;14.30;99.90
21092;DHT22;10704;42.678;23.288;2023-05-19T20:53:03;14.20;99.90
21092;DHT22;10704;42.678;23.288;2023-05-19T20:55:32;14.20;99.90
21092;DHT22;10704;42.678;23.288;2023-05-19T21:01:51;13.90;99.90
21092;DHT22;10704;42.678;23.288;2023-05-19T21:08:05;13.90;99.90
21092;DHT22;10704;42.678;23.288;2023-05-19T21:15:04;14.00;99.90
21092;DHT22;10704;42.678;23.288;2023-05-19T21:17:34;13.90;99.90
21092;DHT22;10704;42.678;23.288;2023-05-19T21:20:00;13.90;99.90
21092;DHT22;10704;42.678;23.288;2023-05-19T21:22:27;13.80;99.90
21092;DHT22;10704;42.678;23.288;2023-05-19T21:24:56;13.80;99.90
21092;DHT22;10704;42.678;23.288;2023-05-19T21:27:22;13.80;99.90
21092;DHT22;10704;42.678;23.288;2023-05-19T21:29:54;13.70;99.90
21092;DHT22;10704;42.678;23.288;2023-05-19T21:36:07;13.60;99.90
21092;DHT22;10704;42.678;23.288;2023-05-19T21:38:55;13.50;99.90
21092;DHT22;10704;42.678;23.288;2023-05-19T21:41:21;13.50;99.90